Time;durP1;ratioP1;P1;durP2;ratioP2;P2;SDS_P1;SDS_P2;PMS_P1;PMS_P2;Temp;Humidity;BMP_temperature;BMP_pressure;BME280_temperature;BME280_humidity;BME280_pressure;Samples;Min_cycle;Max_cycle;Signal;HPM_P1;HPM_P2
2022/04/29 00:00:05;;;;;;;7.60;1.95;;;8.30;99.90;;;;;;5013713;28;20061;-83
2022/04/29 00:03:02;;;;;;;14.20;4.07;;;8.30;99.90;;;;;;5029357;28;20037;-84
2022/04/29 00:05:37;;;;;;;9.23;3.83;;;8.30;99.90;;;;;;4992451;28;20052;-88
2022/04/29 00:08:10;;;;;;;10.50;3.38;;;8.20;99.90;;;;;;4997503;28;20049;-87
2022/04/29 00:10:50;;;;;;;9.68;3.20;;;8.20;99.90;;;;;;5011404;28;20038;-87
2022/04/29 00:13:36;;;;;;;10.63;3.92;;;8.20;99.90;;;;;;4995899;28;20041;-85
2022/04/29 00:16:10;;;;;;;10.20;3.53;;;8.20;99.90;;;;;;4995053;28;20040;-87
2022/04/29 00:18:49;;;;;;;6.75;3.40;;;8.10;99.90;;;;;;4974808;28;20065;-87
2022/04/29 00:21:59;;;;;;;9.88;3.83;;;8.10;99.90;;;;;;4976810;28;20053;-87
2022/04/29 00:24:31;;;;;;;8.50;4.15;;;8.10;99.90;;;;;;4972700;28;20058;-88
2022/04/29 00:27:17;;;;;;;10.73;4.32;;;8.00;99.90;;;;;;4986972;28;20042;-87
2022/04/29 00:29:47;;;;;;;15.30;6.00;;;8.00;99.90;;;;;;4987305;28;20042;-87
2022/04/29 00:32:19;;;;;;;8.98;5.75;;;8.00;99.90;;;;;;5022930;28;20034;-87
2022/04/29 00:34:50;;;;;;;;;;;8.00;99.90;;;;;;5004038;28;20042;-88
2022/04/29 00:37:24;;;;;;;10.00;4.03;;;7.90;99.90;;;;;;5022892;28;19923;-88
2022/04/29 00:39:54;;;;;;;11.25;4.40;;;7.90;99.90;;;;;;4976371;28;20465;-88
2022/04/29 00:42:28;;;;;;;12.77;4.30;;;7.80;99.90;;;;;;5012747;28;20500;-88
2022/04/29 00:45:08;;;;;;;11.00;4.13;;;7.80;99.90;;;;;;4990165;28;21066;-87
2022/04/29 00:48:03;;;;;;;10.25;4.00;;;7.80;99.90;;;;;;4990122;28;20037;-88
2022/04/29 00:50:31;;;;;;;7.43;3.83;;;7.80;99.90;;;;;;4994990;28;20113;-87
2022/04/29 00:53:32;;;;;;;;;;;;;;;;;;;;;
2022/04/29 00:56:10;;;;;;;13.75;5.30;;;7.70;99.90;;;;;;4990839;28;20050;-87
2022/04/29 00:59:22;;;;;;;11.60;4.35;;;7.70;99.90;;;;;;4992438;28;20031;-87
2022/04/29 01:02:03;;;;;;;13.70;6.78;;;7.60;99.90;;;;;;4958024;28;20042;-89
2022/04/29 01:05:07;;;;;;;12.85;5.88;;;7.60;99.90;;;;;;4972803;28;20548;-89
2022/04/29 01:07:44;;;;;;;10.52;5.50;;;7.50;99.90;;;;;;4973843;28;20045;-88
2022/04/29 01:10:34;;;;;;;10.82;5.90;;;7.50;99.90;;;;;;4937122;28;20046;-87
2022/04/29 01:13:39;;;;;;;;;;;;;;;;;;;;;
2022/04/29 01:16:31;;;;;;;14.68;6.50;;;7.40;99.90;;;;;;4954612;28;20387;-88
2022/04/29 01:19:32;;;;;;;;;;;;;;;;;;;;;
2022/04/29 01:22:31;;;;;;;10.48;4.57;;;7.40;99.90;;;;;;4975826;28;20045;-89
2022/04/29 01:25:03;;;;;;;16.45;6.57;;;7.40;99.90;;;;;;4951013;28;20050;-89
2022/04/29 01:27:49;;;;;;;12.45;6.70;;;7.40;99.90;;;;;;4981987;28;20051;-90
2022/04/29 01:30:42;;;;;;;;;;;;;;;;;;;;;
2022/04/29 01:33:28;;;;;;;15.68;8.02;;;7.40;99.90;;;;;;4980955;28;20042;-89
2022/04/29 01:36:15;;;;;;;;;;;;;;;;;;;;;
2022/04/29 01:38:59;;;;;;;16.80;6.80;;;7.30;99.90;;;;;;4996234;28;20486;-89
2022/04/29 01:41:37;;;;;;;17.50;9.48;;;7.30;99.90;;;;;;4989180;28;20038;-88
2022/04/29 01:44:37;;;;;;;17.58;9.18;;;7.30;99.90;;;;;;5007438;28;20046;-87
2022/04/29 01:47:44;;;;;;;14.48;8.65;;;7.30;99.90;;;;;;4991409;28;20045;-84
2022/04/29 01:50:50;;;;;;;12.82;6.55;;;7.30;99.90;;;;;;5002646;28;20068;-84
2022/04/29 01:54:10;;;;;;;15.90;8.15;;;7.30;99.90;;;;;;4991891;28;20042;-84
2022/04/29 01:56:47;;;;;;;11.23;6.40;;;7.20;99.90;;;;;;4984436;28;20037;-83
2022/04/29 01:59:25;;;;;;;9.73;6.00;;;7.20;99.90;;;;;;5003300;28;20034;-83
2022/04/29 02:02:35;;;;;;;14.02;6.13;;;7.20;99.90;;;;;;4980809;28;20044;-84
2022/04/29 02:05:14;;;;;;;11.48;5.60;;;7.20;99.90;;;;;;4976903;28;20050;-84
2022/04/29 02:08:01;;;;;;;11.57;6.43;;;7.20;99.90;;;;;;4987814;28;20458;-84
2022/04/29 02:10:47;;;;;;;10.88;5.95;;;7.20;99.90;;;;;;4961481;28;20029;-83
2022/04/29 02:13:31;;;;;;;;;;;7.20;99.90;;;;;;5008492;28;20050;-84
2022/04/29 02:17:29;;;;;;;20.25;8.38;;;7.20;99.90;;;;;;4988866;28;19913;-83
2022/04/29 02:20:01;;;;;;;14.37;7.53;;;7.20;99.90;;;;;;4937531;28;20059;-84
2022/04/29 02:22:33;;;;;;;;;;;7.10;99.90;;;;;;4952600;28;20034;-84
2022/04/29 02:25:08;;;;;;;11.70;7.07;;;7.10;99.90;;;;;;4990020;28;19920;-83
2022/04/29 02:27:38;;;;;;;12.05;7.82;;;7.10;99.90;;;;;;5004528;28;20033;-83
2022/04/29 02:30:08;;;;;;;13.57;6.90;;;7.10;99.90;;;;;;4978995;28;20030;-83
2022/04/29 02:32:36;;;;;;;13.10;6.40;;;7.10;99.90;;;;;;5004480;28;20025;-83
2022/04/29 02:35:05;;;;;;;15.30;6.65;;;7.10;99.90;;;;;;5005685;28;20029;-83
2022/04/29 02:37:33;;;;;;;11.88;6.18;;;7.10;99.90;;;;;;5020860;28;20038;-83
2022/04/29 02:40:00;;;;;;;16.95;10.15;;;7.20;99.90;;;;;;4997021;28;20035;-83
2022/04/29 02:42:28;;;;;;;9.88;6.55;;;7.10;99.90;;;;;;4992910;28;20049;-83
2022/04/29 02:45:04;;;;;;;14.50;7.78;;;7.10;99.90;;;;;;4977620;28;20037;-83
2022/04/29 02:47:41;;;;;;;13.03;6.80;;;7.20;99.90;;;;;;5005349;28;20022;-83
2022/04/29 02:50:11;;;;;;;13.75;8.38;;;7.20;99.90;;;;;;4992169;28;20033;-88
2022/04/29 02:52:43;;;;;;;15.23;8.25;;;7.20;99.90;;;;;;4993432;28;20133;-88
2022/04/29 02:55:15;;;;;;;14.50;8.63;;;7.20;99.90;;;;;;4978482;28;20044;-89
2022/04/29 02:57:53;;;;;;;15.68;8.15;;;7.20;99.90;;;;;;4993525;28;20045;-87
2022/04/29 03:00:22;;;;;;;12.95;8.00;;;7.20;99.90;;;;;;4994899;28;20038;-88
2022/04/29 03:02:49;;;;;;;17.20;8.57;;;7.20;99.90;;;;;;4979749;28;20037;-88
2022/04/29 03:05:15;;;;;;;17.63;10.43;;;7.20;99.90;;;;;;5007944;28;20038;-88
2022/04/29 03:07:42;;;;;;;21.52;9.05;;;7.20;99.90;;;;;;5004414;28;20046;-89
2022/04/29 03:10:15;;;;;;;13.63;7.55;;;7.20;99.90;;;;;;4992515;28;20393;-88
2022/04/29 03:12:46;;;;;;;11.40;7.20;;;7.10;99.90;;;;;;4999246;28;20481;-88
2022/04/29 03:15:33;;;;;;;14.38;8.63;;;7.20;99.90;;;;;;5023428;28;20049;-89
2022/04/29 03:18:18;;;;;;;13.68;8.30;;;7.10;99.90;;;;;;5003392;28;20030;-89
2022/04/29 03:20:56;;;;;;;13.43;7.50;;;7.10;99.90;;;;;;4996965;28;20041;-88
2022/04/29 03:23:53;;;;;;;16.85;8.45;;;7.10;99.90;;;;;;4952072;28;20030;-88
2022/04/29 03:26:21;;;;;;;14.18;9.27;;;7.10;99.90;;;;;;4988300;28;20064;-88
2022/04/29 03:28:52;;;;;;;15.90;8.27;;;7.00;99.90;;;;;;5018023;28;20048;-89
2022/04/29 03:31:28;;;;;;;15.95;7.45;;;7.00;99.90;;;;;;4962218;28;20048;-87
2022/04/29 03:34:18;;;;;;;18.63;10.52;;;7.00;99.90;;;;;;4995958;28;20045;-89
2022/04/29 03:36:56;;;;;;;14.38;8.23;;;7.00;99.90;;;;;;4990734;28;20037;-88
2022/04/29 03:39:32;;;;;;;19.70;7.55;;;6.90;99.90;;;;;;5006037;28;20037;-88
2022/04/29 03:42:04;;;;;;;11.70;7.53;;;6.90;99.90;;;;;;4993331;28;20034;-87
2022/04/29 03:44:40;;;;;;;12.70;7.80;;;6.90;99.90;;;;;;4998119;28;20973;-88
2022/04/29 03:47:31;;;;;;;;;;;;;;;;;;;;;
2022/04/29 03:50:29;;;;;;;15.18;8.35;;;6.90;99.90;;;;;;5008047;28;20049;-88
2022/04/29 03:53:09;;;;;;;15.90;7.38;;;6.90;99.90;;;;;;5008849;28;20049;-87
2022/04/29 03:55:41;;;;;;;16.73;8.30;;;6.90;99.90;;;;;;4988115;28;20034;-87
2022/04/29 03:58:23;;;;;;;21.55;8.80;;;6.90;99.90;;;;;;5019262;28;20053;-88
2022/04/29 04:01:01;;;;;;;18.27;8.83;;;6.80;99.90;;;;;;4991225;28;20034;-88
2022/04/29 04:03:52;;;;;;;14.00;7.93;;;6.90;99.90;;;;;;4994871;28;20025;-87
2022/04/29 04:09:46;;;;;;;14.93;8.77;;;6.90;99.90;;;;;;5005035;28;20041;-88
2022/04/29 04:12:18;;;;;;;15.33;8.17;;;6.80;99.90;;;;;;4991029;28;20034;-88
2022/04/29 04:15:35;;;;;;;16.40;7.83;;;6.80;99.90;;;;;;5009636;28;20041;-88
2022/04/29 04:18:15;;;;;;;21.03;9.33;;;6.80;99.90;;;;;;5009248;28;20379;-83
2022/04/29 04:20:48;;;;;;;15.00;7.97;;;6.80;99.90;;;;;;5001454;28;20045;-88
2022/04/29 04:23:23;;;;;;;15.77;7.40;;;6.90;99.90;;;;;;4988338;28;20026;-87
2022/04/29 04:25:50;;;;;;;16.00;7.38;;;6.90;99.90;;;;;;4994417;28;20049;-89
2022/04/29 04:28:20;;;;;;;18.42;9.50;;;6.90;99.90;;;;;;4991997;28;20042;-89
2022/04/29 04:30:52;;;;;;;14.45;7.25;;;6.90;99.90;;;;;;4947254;28;20057;-89
2022/04/29 04:33:23;;;;;;;16.90;7.83;;;6.90;99.90;;;;;;4990164;28;20037;-87
2022/04/29 04:35:51;;;;;;;13.27;6.40;;;7.00;99.90;;;;;;5007620;28;20389;-89
2022/04/29 04:38:18;;;;;;;24.00;9.60;;;7.10;99.90;;;;;;4989193;28;20515;-86
2022/04/29 04:40:53;;;;;;;17.73;8.00;;;7.00;99.90;;;;;;5005147;28;20030;-87
2022/04/29 04:44:09;;;;;;;17.40;8.10;;;7.10;99.90;;;;;;4977602;28;20088;-85
2022/04/29 04:47:07;;;;;;;16.17;7.23;;;7.10;99.90;;;;;;4996302;28;20038;-83
2022/04/29 04:50:45;;;;;;;17.53;8.60;;;7.10;99.90;;;;;;4965815;28;20073;-83
2022/04/29 04:53:13;;;;;;;24.38;9.65;;;7.10;99.90;;;;;;4989130;28;20038;-84
2022/04/29 04:55:40;;;;;;;20.50;7.85;;;7.10;99.90;;;;;;4999710;28;20026;-83
2022/04/29 04:58:08;;;;;;;13.98;8.13;;;7.10;99.90;;;;;;4985110;28;20034;-84
2022/04/29 05:00:37;;;;;;;17.00;8.73;;;7.20;99.90;;;;;;4988342;28;20044;-84
2022/04/29 05:03:23;;;;;;;19.02;9.35;;;7.20;99.90;;;;;;4994218;28;20029;-83
2022/04/29 05:06:09;;;;;;;13.02;8.35;;;7.20;99.90;;;;;;4981264;28;20109;-83
2022/04/29 05:08:39;;;;;;;11.80;8.38;;;7.20;99.90;;;;;;4957036;28;20039;-85
2022/04/29 05:11:17;;;;;;;12.98;7.72;;;7.20;99.90;;;;;;5004240;28;20037;-86
2022/04/29 05:13:46;;;;;;;16.13;7.75;;;7.20;99.90;;;;;;5001688;28;20117;-83
2022/04/29 05:16:12;;;;;;;13.30;7.53;;;7.20;99.90;;;;;;4987949;28;20041;-79
2022/04/29 05:19:02;;;;;;;18.90;8.07;;;7.20;99.90;;;;;;5005099;28;20509;-79
2022/04/29 05:21:35;;;;;;;17.35;7.18;;;7.30;99.90;;;;;;5000601;28;20049;-83
2022/04/29 05:24:13;;;;;;;16.17;6.93;;;7.30;99.90;;;;;;4974129;28;20038;-83
2022/04/29 05:27:00;;;;;;;15.05;7.88;;;7.30;99.90;;;;;;5002993;28;20145;-82
2022/04/29 05:29:58;;;;;;;18.50;7.75;;;7.30;99.90;;;;;;4979903;28;20053;-83
2022/04/29 05:33:01;;;;;;;20.17;7.65;;;7.30;99.90;;;;;;5005995;28;20046;-83
2022/04/29 05:36:12;;;;;;;17.40;9.70;;;7.30;99.90;;;;;;4992821;28;20057;-83
2022/04/29 05:42:15;;;;;;;20.30;8.77;;;7.40;99.90;;;;;;5002001;28;20667;-81
2022/04/29 05:44:43;;;;;;;28.83;11.85;;;7.40;99.90;;;;;;4997066;28;20461;-78
2022/04/29 05:47:16;;;;;;;19.38;8.38;;;7.40;99.90;;;;;;4987742;28;20408;-78
2022/04/29 05:49:52;;;;;;;14.85;8.52;;;7.40;99.90;;;;;;5005026;28;20042;-85
2022/04/29 05:52:51;;;;;;;15.20;8.15;;;7.40;99.90;;;;;;5008743;28;20029;-86
2022/04/29 05:55:55;;;;;;;21.97;10.67;;;7.50;99.90;;;;;;4970693;28;20044;-84
2022/04/29 06:06:31;;;;;;;22.33;12.23;;;7.60;99.90;;;;;;4961227;28;20042;-85
2022/04/29 06:19:48;;;;;;;15.35;7.50;;;7.70;99.90;;;;;;4957707;28;20058;-84
2022/04/29 06:27:57;;;;;;;14.52;7.35;;;7.90;99.90;;;;;;4903773;29;20047;-84
2022/04/29 06:30:54;;;;;;;18.73;8.27;;;8.10;99.90;;;;;;4900649;29;20051;-82
2022/04/29 06:34:32;;;;;;;18.48;8.75;;;8.20;99.90;;;;;;4876682;29;20078;-84
2022/04/29 06:42:09;;;;;;;;;;;8.40;99.90;;;;;;4833867;29;20037;-86
2022/04/29 06:44:54;;;;;;;18.08;7.85;;;8.50;99.90;;;;;;4928224;28;19911;-77
2022/04/29 06:47:42;;;;;;;14.40;6.97;;;8.50;99.90;;;;;;4936695;28;20112;-79
2022/04/29 06:50:46;;;;;;;17.90;7.68;;;8.60;99.90;;;;;;4932186;29;20048;-78
2022/04/29 06:53:32;;;;;;;18.20;8.45;;;8.70;99.90;;;;;;4933003;28;20396;-78
2022/04/29 06:56:30;;;;;;;15.60;6.70;;;8.80;99.90;;;;;;4924091;28;20054;-79
2022/04/29 06:59:02;;;;;;;16.27;6.53;;;8.80;99.90;;;;;;4979564;28;20464;-79
2022/04/29 07:01:39;;;;;;;18.33;6.82;;;8.90;99.90;;;;;;4987939;28;20034;-78
2022/04/29 07:04:08;;;;;;;14.23;7.25;;;9.00;99.90;;;;;;4975224;28;20043;-79
2022/04/29 07:06:39;;;;;;;15.45;7.07;;;9.10;99.90;;;;;;5004341;28;20625;-79
2022/04/29 07:09:06;;;;;;;11.30;6.88;;;9.20;99.90;;;;;;4977807;28;20042;-79
2022/04/29 07:11:51;;;;;;;16.02;7.53;;;9.30;99.90;;;;;;5005309;28;20390;-79
2022/04/29 07:14:45;;;;;;;18.35;7.30;;;9.40;99.90;;;;;;4998926;28;20025;-78
2022/04/29 07:17:50;;;;;;;16.70;7.93;;;9.50;99.90;;;;;;5010437;28;20054;-79
2022/04/29 07:20:18;;;;;;;13.40;6.00;;;9.60;99.90;;;;;;5006126;28;20398;-79
2022/04/29 07:22:44;;;;;;;17.42;6.53;;;9.60;99.90;;;;;;4995841;28;20038;-78
2022/04/29 07:25:13;;;;;;;17.27;6.20;;;9.70;99.90;;;;;;4995759;28;20041;-79
2022/04/29 07:27:41;;;;;;;10.27;5.10;;;9.80;99.90;;;;;;4994758;28;20387;-79
2022/04/29 07:30:10;;;;;;;9.05;5.05;;;9.90;99.90;;;;;;4992017;28;20030;-79
2022/04/29 07:32:42;;;;;;;15.23;5.28;;;10.00;99.90;;;;;;4978520;28;20034;-79
2022/04/29 07:44:01;;;;;;;14.57;6.43;;;10.60;99.90;;;;;;4994777;28;20044;-79
2022/04/29 07:46:30;;;;;;;12.25;5.70;;;10.80;99.90;;;;;;4980056;28;20044;-79
2022/04/29 07:48:57;;;;;;;10.80;5.63;;;10.80;99.90;;;;;;5009083;28;20035;-79
2022/04/29 07:51:24;;;;;;;10.48;5.30;;;10.90;99.90;;;;;;4976055;28;20042;-79
2022/04/29 07:53:51;;;;;;;11.13;5.50;;;11.00;99.90;;;;;;4976781;28;20037;-79
2022/04/29 07:56:18;;;;;;;14.52;5.97;;;11.20;99.90;;;;;;4993144;28;20040;-79
2022/04/29 07:58:47;;;;;;;14.23;5.35;;;11.30;99.90;;;;;;5007015;28;20499;-79
2022/04/29 08:01:16;;;;;;;10.43;4.75;;;11.40;99.90;;;;;;4994377;28;20022;-79
2022/04/29 08:03:45;;;;;;;13.05;5.22;;;11.50;99.90;;;;;;4980835;28;20025;-78
2022/04/29 08:06:16;;;;;;;9.90;3.83;;;11.70;99.90;;;;;;4994374;28;20030;-80
2022/04/29 08:08:43;;;;;;;8.07;4.07;;;12.00;99.90;;;;;;4990855;28;20057;-79
2022/04/29 08:11:12;;;;;;;12.23;4.65;;;12.30;99.90;;;;;;5006153;28;20065;-79
2022/04/29 08:13:59;;;;;;;9.85;4.43;;;12.50;99.90;;;;;;4980849;28;20037;-79
2022/04/29 08:16:51;;;;;;;12.35;4.78;;;12.70;99.90;;;;;;4982257;28;20044;-79
2022/04/29 08:19:30;;;;;;;12.18;5.85;;;12.80;99.90;;;;;;4988387;28;20035;-78
2022/04/29 08:22:19;;;;;;;17.02;8.05;;;13.10;99.90;;;;;;4983763;28;20033;-84
2022/04/29 08:25:58;;;;;;;14.85;6.28;;;13.30;99.90;;;;;;4990730;28;20663;-85
2022/04/29 08:28:45;;;;;;;7.35;3.60;;;13.50;99.90;;;;;;5004461;28;20038;-84
2022/04/29 08:32:47;;;;;;;;;;;;;;;;;;;;;
2022/04/29 08:36:15;;;;;;;9.60;3.70;;;13.70;99.90;;;;;;4924218;28;20480;-84
2022/04/29 08:39:48;;;;;;;10.82;4.32;;;13.70;99.90;;;;;;4948755;28;20204;-84
2022/04/29 08:42:41;;;;;;;10.60;4.47;;;13.70;99.90;;;;;;4917061;28;20062;-84
2022/04/29 08:45:52;;;;;;;11.80;4.30;;;13.70;99.90;;;;;;4917762;29;20427;-85
2022/04/29 08:49:29;;;;;;;13.02;7.68;;;13.60;99.80;;;;;;4905565;29;20543;-84
2022/04/29 08:52:44;;;;;;;12.88;6.13;;;13.60;99.90;;;;;;4888620;29;20512;-85
2022/04/29 09:07:01;;;;;;;10.68;4.60;;;14.40;99.10;;;;;;4877296;29;20528;-90
2022/04/29 09:10:16;;;;;;;11.32;4.18;;;14.80;99.00;;;;;;4863792;29;20544;-87
2022/04/29 09:13:29;;;;;;;10.93;4.60;;;14.90;98.40;;;;;;4858154;29;20048;-87
2022/04/29 09:16:14;;;;;;;12.90;4.55;;;15.10;97.50;;;;;;4886432;29;20046;-81
2022/04/29 09:19:11;;;;;;;9.73;4.20;;;15.30;96.70;;;;;;4886706;29;20052;-85
2022/04/29 09:22:36;;;;;;;6.93;3.65;;;15.50;96.60;;;;;;4931186;28;20036;-82
2022/04/29 09:26:24;;;;;;;9.55;4.68;;;15.90;95.70;;;;;;4925797;29;20023;-82
2022/04/29 09:30:10;;;;;;;11.43;4.82;;;16.10;94.90;;;;;;4984320;28;20046;-82
2022/04/29 09:37:18;;;;;;;7.25;3.38;;;16.40;93.30;;;;;;4907150;28;20049;-82
2022/04/29 09:40:08;;;;;;;8.85;4.60;;;16.50;93.40;;;;;;4921240;28;20053;-83
2022/04/29 09:58:37;;;;;;;14.18;6.00;;;16.30;92.30;;;;;;4819760;29;20048;-82
2022/04/29 10:01:15;;;;;;;10.18;4.78;;;16.20;92.40;;;;;;4870739;29;20036;-86
2022/04/29 10:03:45;;;;;;;6.35;4.10;;;16.30;92.50;;;;;;4909074;29;20042;-82
2022/04/29 10:06:20;;;;;;;6.93;4.18;;;16.50;92.20;;;;;;4908371;29;20039;-82
2022/04/29 10:08:48;;;;;;;;;;;16.70;92.10;;;;;;4895438;29;20039;-82
2022/04/29 10:11:33;;;;;;;;;;;16.70;91.90;;;;;;4922436;29;19918;-83
2022/04/29 10:14:16;;;;;;;8.88;3.72;;;16.70;91.50;;;;;;4923973;29;19938;-82
2022/04/29 10:23:09;;;;;;;9.57;4.25;;;16.70;91.30;;;;;;4878808;29;20481;-79
2022/04/29 10:25:42;;;;;;;8.13;3.40;;;16.70;91.30;;;;;;4878833;29;20360;-81
2022/04/29 10:28:10;;;;;;;9.73;4.07;;;16.80;91.10;;;;;;4892729;29;20062;-81
2022/04/29 10:30:38;;;;;;;7.70;3.15;;;16.90;91.10;;;;;;4858777;29;20032;-81
2022/04/29 10:33:12;;;;;;;7.25;3.83;;;16.90;90.80;;;;;;4909735;29;20042;-85
2022/04/29 10:35:46;;;;;;;9.77;4.13;;;17.00;90.60;;;;;;4896892;29;20047;-85
2022/04/29 10:38:36;;;;;;;10.15;3.85;;;17.00;90.30;;;;;;4929478;29;20364;-85
2022/04/29 10:41:18;;;;;;;9.73;3.60;;;17.00;89.80;;;;;;4914854;29;20040;-85
2022/04/29 10:44:09;;;;;;;9.85;4.53;;;17.10;89.90;;;;;;4923569;28;20031;-83
2022/04/29 10:46:39;;;;;;;13.88;3.22;;;17.20;88.50;;;;;;4949028;28;20035;-87
2022/04/29 10:49:30;;;;;;;6.53;3.30;;;17.30;87.70;;;;;;4913507;28;20055;-84
2022/04/29 10:52:25;;;;;;;9.07;3.78;;;17.40;87.80;;;;;;4932196;29;20051;-84
2022/04/29 10:55:24;;;;;;;10.07;3.90;;;17.40;86.90;;;;;;4942253;28;20051;-84
2022/04/29 10:58:00;;;;;;;16.70;5.85;;;17.40;86.80;;;;;;4912129;28;20123;-84
2022/04/29 11:00:33;;;;;;;7.68;3.80;;;17.20;86.50;;;;;;4913967;28;20467;-84
2022/04/29 11:03:40;;;;;;;8.02;3.42;;;17.10;87.00;;;;;;4914292;28;20031;-84
2022/04/29 11:06:16;;;;;;;11.27;3.75;;;17.20;88.00;;;;;;4930640;29;20030;-84
2022/04/29 11:08:46;;;;;;;8.70;4.50;;;17.30;87.00;;;;;;4885277;28;20046;-84
2022/04/29 11:11:14;;;;;;;8.30;4.88;;;17.30;86.10;;;;;;4925124;28;20027;-84
2022/04/29 11:14:01;;;;;;;7.32;3.95;;;17.20;85.10;;;;;;4929205;29;20050;-85
2022/04/29 11:16:58;;;;;;;8.73;2.83;;;17.20;85.60;;;;;;4914435;28;20027;-84
2022/04/29 11:19:48;;;;;;;8.70;3.47;;;17.40;85.90;;;;;;4899358;28;20047;-84
2022/04/29 11:25:33;;;;;;;9.82;3.88;;;17.60;84.80;;;;;;4947421;28;20046;-84
2022/04/29 11:28:36;;;;;;;8.38;4.80;;;17.40;83.40;;;;;;4913870;28;20039;-84
2022/04/29 11:31:39;;;;;;;11.05;4.47;;;17.40;84.10;;;;;;4905180;28;20035;-84
2022/04/29 11:34:14;;;;;;;6.35;2.78;;;17.40;83.70;;;;;;4931567;28;20027;-77
2022/04/29 11:37:10;;;;;;;9.73;4.53;;;17.40;83.90;;;;;;4913511;29;20083;-84
2022/04/29 11:40:40;;;;;;;7.65;3.58;;;17.40;83.20;;;;;;4911747;29;20051;-83
2022/04/29 11:43:14;;;;;;;10.32;4.55;;;17.40;83.40;;;;;;4863184;29;20045;-82
2022/04/29 11:46:30;;;;;;;7.20;3.83;;;17.40;83.00;;;;;;4889021;29;20044;-83
2022/04/29 11:53:15;;;;;;;11.73;6.60;;;17.50;82.70;;;;;;4841933;29;20072;-81
2022/04/29 11:56:41;;;;;;;7.90;4.35;;;17.50;81.80;;;;;;4837431;29;20061;-82
2022/04/29 12:08:05;;;;;;;24.60;17.63;;;17.00;82.50;;;;;;4783299;29;20068;-82
2022/04/29 12:11:03;;;;;;;9.27;7.27;;;17.00;82.80;;;;;;4806942;29;20046;-88
2022/04/29 12:14:32;;;;;;;12.85;7.43;;;17.00;82.90;;;;;;4725844;30;20297;-87
2022/04/29 12:18:43;;;;;;;12.30;5.63;;;16.90;82.60;;;;;;4786460;29;20045;-86
2022/04/29 12:21:26;;;;;;;11.73;6.47;;;16.90;82.60;;;;;;4821734;29;20055;-89
2022/04/29 12:24:12;;;;;;;14.38;6.20;;;16.90;82.40;;;;;;4803526;29;20039;-87
2022/04/29 12:27:10;;;;;;;6.25;3.80;;;16.90;81.40;;;;;;4847880;29;20102;-90
2022/04/29 12:37:08;;;;;;;;;;;16.70;82.10;;;;;;4869935;28;20414;-92
2022/04/29 12:40:34;;;;;;;6.05;3.35;;;16.70;81.20;;;;;;4926198;29;19930;-90
2022/04/29 12:43:44;;;;;;;9.65;3.42;;;16.70;80.80;;;;;;4924995;29;20062;-85
2022/04/29 12:47:03;;;;;;;6.22;3.83;;;17.20;81.00;;;;;;4895486;29;20033;-86
2022/04/29 12:50:11;;;;;;;9.88;4.22;;;17.50;79.30;;;;;;4867681;29;20047;-83
2022/04/29 12:53:23;;;;;;;8.05;3.63;;;17.70;78.50;;;;;;4894922;29;20512;-87
2022/04/29 12:57:14;;;;;;;6.88;2.92;;;17.70;77.70;;;;;;4911944;29;20040;-90
2022/04/29 12:59:45;;;;;;;11.85;3.92;;;17.70;77.90;;;;;;4890883;29;20048;-85
2022/04/29 13:02:24;;;;;;;6.50;2.50;;;17.70;77.40;;;;;;4906474;29;20052;-83
2022/04/29 13:05:58;;;;;;;5.68;2.50;;;17.90;77.50;;;;;;4895465;29;20047;-83
2022/04/29 13:09:26;;;;;;;8.88;5.15;;;18.60;77.80;;;;;;4866939;29;20096;-85
2022/04/29 13:12:28;;;;;;;15.68;6.40;;;20.10;73.80;;;;;;4927849;28;20047;-82
2022/04/29 13:16:41;;;;;;;5.43;2.03;;;21.00;69.70;;;;;;4895713;29;20036;-80
2022/04/29 13:19:24;;;;;;;5.93;3.75;;;21.70;66.80;;;;;;4933306;28;20043;-84
2022/04/29 13:21:55;;;;;;;3.88;2.03;;;22.40;63.60;;;;;;4950784;28;20054;-82
2022/04/29 13:24:34;;;;;;;8.00;3.15;;;22.80;63.30;;;;;;4917088;29;20360;-85
2022/04/29 13:27:22;;;;;;;5.95;2.63;;;23.40;61.40;;;;;;4880537;29;20052;-84
2022/04/29 13:29:58;;;;;;;6.13;2.90;;;23.90;58.80;;;;;;4865246;29;20497;-86
2022/04/29 13:33:03;;;;;;;6.13;3.50;;;24.50;56.50;;;;;;4867161;29;20056;-85
2022/04/29 13:35:39;;;;;;;7.03;2.75;;;24.70;54.30;;;;;;4868788;29;20041;-85
2022/04/29 13:38:48;;;;;;;5.70;2.20;;;24.90;53.10;;;;;;4842110;29;20690;-86
2022/04/29 13:41:42;;;;;;;4.80;2.60;;;24.90;53.10;;;;;;4800241;29;20494;-85
2022/04/29 13:44:16;;;;;;;6.50;2.72;;;25.10;51.90;;;;;;4817103;29;20061;-84
2022/04/29 13:46:52;;;;;;;4.72;1.50;;;25.30;51.60;;;;;;4816196;29;20046;-85
2022/04/29 13:49:18;;;;;;;6.50;2.45;;;25.50;50.40;;;;;;4803505;29;20045;-85
2022/04/29 13:51:52;;;;;;;4.43;2.25;;;25.60;50.20;;;;;;4786885;29;20050;-84
2022/04/29 13:54:22;;;;;;;5.05;3.30;;;25.70;50.10;;;;;;4834672;29;20049;-84
2022/04/29 13:56:50;;;;;;;4.57;2.13;;;25.90;49.50;;;;;;4827599;29;21987;-84
2022/04/29 13:59:23;;;;;;;3.50;1.70;;;25.60;48.00;;;;;;4809284;29;20033;-85
2022/04/29 14:02:09;;;;;;;4.97;1.83;;;25.70;48.80;;;;;;4826350;29;20060;-84
2022/04/29 14:04:41;;;;;;;5.50;1.95;;;26.10;48.30;;;;;;4819977;29;20041;-88
2022/04/29 14:07:18;;;;;;;11.32;7.72;;;26.30;47.00;;;;;;4837605;29;20394;-86
2022/04/29 14:09:45;;;;;;;8.57;5.22;;;26.30;47.00;;;;;;4831850;29;20061;-87
2022/04/29 14:12:12;;;;;;;5.68;3.83;;;25.80;46.60;;;;;;4820720;29;20237;-89
2022/04/29 14:14:51;;;;;;;5.00;2.55;;;25.00;47.90;;;;;;4824956;29;20053;-88
2022/04/29 14:17:42;;;;;;;6.93;3.17;;;24.40;49.00;;;;;;4836263;29;20748;-85
2022/04/29 14:20:09;;;;;;;6.78;2.40;;;23.60;50.00;;;;;;4889349;29;20040;-85
2022/04/29 14:22:39;;;;;;;6.25;2.53;;;22.90;50.50;;;;;;4854224;29;20040;-85
2022/04/29 14:25:13;;;;;;;5.32;3.85;;;22.20;51.80;;;;;;4852952;29;20369;-85
2022/04/29 14:27:41;;;;;;;8.10;3.08;;;21.70;52.80;;;;;;4881343;29;20521;-86
2022/04/29 14:30:41;;;;;;;4.18;2.20;;;21.30;53.80;;;;;;4869996;29;20041;-85
2022/04/29 14:33:26;;;;;;;9.90;3.63;;;21.10;54.60;;;;;;4873017;29;20047;-85
2022/04/29 14:35:58;;;;;;;4.72;2.55;;;21.00;55.00;;;;;;4862829;29;20053;-85
2022/04/29 14:38:49;;;;;;;5.30;2.38;;;20.70;55.50;;;;;;4867153;29;20060;-81
2022/04/29 14:41:28;;;;;;;5.63;2.67;;;20.40;55.40;;;;;;4869813;29;20057;-81
2022/04/29 14:43:59;;;;;;;6.15;2.90;;;20.20;56.20;;;;;;4873860;29;20033;-81
2022/04/29 14:46:34;;;;;;;5.60;2.45;;;20.00;56.60;;;;;;4844316;29;20060;-85
2022/04/29 14:49:13;;;;;;;7.47;2.40;;;19.90;57.00;;;;;;4911826;29;20048;-86
2022/04/29 14:52:12;;;;;;;4.30;2.63;;;19.70;57.20;;;;;;4895374;29;20043;-87
2022/04/29 14:55:30;;;;;;;7.50;2.08;;;19.40;58.10;;;;;;4920441;28;20450;-86
2022/04/29 14:57:55;;;;;;;4.93;1.70;;;19.40;58.70;;;;;;4914112;28;20448;-84
2022/04/29 15:05:45;;;;;;;7.78;3.47;;;19.20;58.80;;;;;;4944827;28;20034;-84
2022/04/29 15:08:33;;;;;;;4.68;2.03;;;18.90;59.30;;;;;;4923460;28;20034;-83
2022/04/29 15:17:48;;;;;;;9.07;5.13;;;18.50;60.20;;;;;;4857274;29;20044;-80
2022/04/29 15:20:18;;;;;;;7.25;2.45;;;18.30;60.40;;;;;;4846253;29;20493;-80
2022/04/29 15:22:47;;;;;;;8.98;3.65;;;18.30;60.90;;;;;;4850763;29;20207;-80
2022/04/29 15:25:17;;;;;;;4.13;2.13;;;18.30;61.00;;;;;;4835949;29;20050;-81
2022/04/29 15:27:47;;;;;;;7.35;2.42;;;18.20;61.00;;;;;;4862437;29;20040;-81
2022/04/29 15:30:16;;;;;;;4.07;1.85;;;18.20;61.70;;;;;;4847927;29;21206;-82
2022/04/29 15:32:43;;;;;;;5.93;2.40;;;18.10;61.90;;;;;;4823054;29;20056;-81
2022/04/29 15:35:11;;;;;;;6.80;2.80;;;18.00;61.80;;;;;;4838143;29;20516;-78
2022/04/29 15:37:37;;;;;;;4.70;1.65;;;17.90;62.00;;;;;;4835319;29;20409;-77
2022/04/29 15:40:05;;;;;;;7.95;2.60;;;17.80;62.50;;;;;;4846380;29;20045;-79
2022/04/29 15:43:46;;;;;;;7.55;2.30;;;17.80;62.70;;;;;;4877535;29;20074;-82
2022/04/29 15:46:41;;;;;;;6.45;1.58;;;17.70;62.50;;;;;;4864250;29;20063;-80
2022/04/29 15:49:08;;;;;;;5.15;1.92;;;17.50;62.80;;;;;;4868636;29;20024;-78
2022/04/29 15:51:37;;;;;;;6.18;1.50;;;17.30;63.10;;;;;;4905847;29;20047;-81
2022/04/29 15:54:04;;;;;;;6.13;1.40;;;17.20;63.60;;;;;;4890913;29;20036;-80
2022/04/29 15:56:41;;;;;;;6.22;2.70;;;17.20;63.50;;;;;;4876310;29;20569;-84
2022/04/29 15:59:08;;;;;;;6.85;1.60;;;17.20;63.30;;;;;;4875391;29;20055;-85
2022/04/29 16:01:36;;;;;;;5.00;1.60;;;17.10;63.60;;;;;;4891083;29;20044;-84
2022/04/29 16:04:03;;;;;;;3.65;1.58;;;17.10;64.00;;;;;;4875170;29;20055;-85
2022/04/29 16:06:31;;;;;;;5.18;1.90;;;17.20;64.00;;;;;;4862888;29;20604;-85
2022/04/29 16:09:02;;;;;;;4.18;1.23;;;17.20;63.80;;;;;;4880738;29;20048;-77
2022/04/29 16:11:29;;;;;;;6.10;1.60;;;17.20;64.10;;;;;;4926713;28;20019;-83
2022/04/29 16:13:55;;;;;;;6.25;1.67;;;17.20;64.10;;;;;;4899360;29;20036;-80
2022/04/29 16:16:25;;;;;;;16.90;11.63;;;17.20;64.20;;;;;;4913343;29;20501;-83
2022/04/29 16:22:05;;;;;;;35.90;23.08;;;17.00;63.80;;;;;;4917755;28;20432;-82
2022/04/29 16:28:35;;;;;;;5.15;3.72;;;16.60;64.60;;;;;;4931295;29;20028;-80
2022/04/29 16:36:10;;;;;;;9.88;5.90;;;16.10;66.60;;;;;;4839049;29;20054;-80